createdAt,value
2022-12-06T00:01:35.682Z,2.83
2022-12-06T00:04:06.905Z,2.84
2022-12-06T00:06:48.125Z,2.85
2022-12-06T00:09:19.577Z,2.85
2022-12-06T00:11:48.189Z,2.88
2022-12-06T00:14:17.539Z,2.89
2022-12-06T00:16:45.928Z,2.91
2022-12-06T00:19:19.247Z,2.91
2022-12-06T00:21:47.623Z,2.90
2022-12-06T00:24:18.192Z,2.89
2022-12-06T00:26:47.738Z,2.87
2022-12-06T00:29:22.735Z,2.87
2022-12-06T00:31:51.041Z,2.88
2022-12-06T00:34:19.205Z,2.91
2022-12-06T00:36:47.907Z,2.91
2022-12-06T00:39:18.404Z,2.90
2022-12-06T00:41:46.372Z,2.91
2022-12-06T00:44:14.455Z,2.90
2022-12-06T00:46:42.409Z,2.93
2022-12-06T00:49:10.355Z,2.94
2022-12-06T00:51:39.594Z,2.93
2022-12-06T00:54:08.608Z,2.90
2022-12-06T00:56:37.301Z,2.87
2022-12-06T00:59:06.125Z,2.87
2022-12-06T01:01:36.448Z,2.87
2022-12-06T01:04:07.233Z,2.91
2022-12-06T01:06:37.950Z,2.90
2022-12-06T01:09:09.318Z,2.92
2022-12-06T01:11:37.933Z,2.90
2022-12-06T01:14:06.491Z,2.91
2022-12-06T01:16:35.260Z,2.92
2022-12-06T01:19:05.588Z,2.89
2022-12-06T01:21:34.142Z,2.89
2022-12-06T01:24:02.116Z,2.87
2022-12-06T01:26:33.324Z,2.86
2022-12-06T01:29:02.524Z,2.89
2022-12-06T01:31:37.714Z,2.91
2022-12-06T01:34:14.117Z,2.89
2022-12-06T01:36:42.461Z,2.87
2022-12-06T01:39:11.268Z,2.89
2022-12-06T01:41:40.222Z,2.87
2022-12-06T01:44:38.983Z,2.83
2022-12-06T01:47:32.216Z,2.84
2022-12-06T01:50:18.476Z,2.87
2022-12-06T01:52:54.399Z,2.85
2022-12-06T01:55:25.679Z,2.87
2022-12-06T01:57:58.519Z,2.85
2022-12-06T02:00:26.796Z,2.85
2022-12-06T02:03:00.725Z,2.84
2022-12-06T02:05:31.637Z,2.79
2022-12-06T02:08:02.256Z,2.77
2022-12-06T02:10:31.511Z,2.82
2022-12-06T02:12:59.499Z,2.83
2022-12-06T02:15:45.055Z,2.86
2022-12-06T02:18:21.852Z,2.87
2022-12-06T02:21:06.783Z,2.86
2022-12-06T02:24:19.253Z,2.85
2022-12-06T02:27:18.181Z,2.82
2022-12-06T02:30:18.747Z,2.79
2022-12-06T02:33:23.428Z,2.78
2022-12-06T02:36:02.797Z,2.80
2022-12-06T02:38:43.624Z,2.80
2022-12-06T02:41:27.583Z,2.83
2022-12-06T02:44:03.198Z,2.68
2022-12-06T02:46:34.757Z,2.76
2022-12-06T02:49:06.723Z,2.77
2022-12-06T02:51:37.383Z,2.78
2022-12-06T02:54:08.842Z,2.79
2022-12-06T02:56:36.824Z,2.81
2022-12-06T02:59:05.797Z,2.82
2022-12-06T03:01:41.197Z,2.84
2022-12-06T03:04:15.311Z,2.83
2022-12-06T03:06:52.044Z,2.78
2022-12-06T03:09:49.774Z,2.77
2022-12-06T03:12:45.874Z,2.73
2022-12-06T03:15:34.388Z,2.77
2022-12-06T03:18:15.997Z,2.76
2022-12-06T03:20:56.560Z,2.75
2022-12-06T03:23:32.020Z,2.78
2022-12-06T03:26:02.200Z,2.77
2022-12-06T03:28:30.831Z,2.79
2022-12-06T03:31:03.505Z,2.82
2022-12-06T03:33:33.668Z,2.83
2022-12-06T03:36:02.471Z,2.81
2022-12-06T03:38:37.390Z,2.75
2022-12-06T03:41:07.655Z,2.75
2022-12-06T03:43:35.728Z,2.77
2022-12-06T03:46:17.938Z,2.78
2022-12-06T03:48:54.896Z,2.72
2022-12-06T03:51:27.281Z,2.80
2022-12-06T03:53:59.693Z,2.81
2022-12-06T03:56:28.311Z,2.81
2022-12-06T03:58:56.341Z,2.82
2022-12-06T04:01:24.594Z,2.82
2022-12-06T04:03:52.611Z,2.82
2022-12-06T04:06:20.543Z,2.82
2022-12-06T04:08:48.588Z,2.83
2022-12-06T04:11:16.555Z,2.80
2022-12-06T04:13:44.596Z,2.81
2022-12-06T04:16:31.190Z,2.81
2022-12-06T04:18:59.164Z,2.79
2022-12-06T04:21:32.718Z,2.78
2022-12-06T04:24:02.744Z,2.74
2022-12-06T04:26:30.697Z,2.71
2022-12-06T04:29:17.095Z,2.68
2022-12-06T04:32:04.374Z,2.62
2022-12-06T04:34:51.131Z,2.57
2022-12-06T04:37:37.990Z,2.57
2022-12-06T04:40:07.277Z,2.57
2022-12-06T04:42:53.703Z,2.57
2022-12-06T04:45:21.780Z,2.50
2022-12-06T04:47:49.776Z,2.52
2022-12-06T04:50:17.747Z,2.53
2022-12-06T04:52:46.317Z,2.57
2022-12-06T04:55:14.475Z,2.58
2022-12-06T04:57:42.434Z,2.60
2022-12-06T05:00:11.407Z,2.63
2022-12-06T05:02:39.763Z,2.65
2022-12-06T05:05:08.232Z,2.61
2022-12-06T05:07:36.500Z,2.65
2022-12-06T05:10:04.907Z,2.66
2022-12-06T05:12:32.897Z,2.67
2022-12-06T05:15:00.827Z,2.70
2022-12-06T05:17:29.905Z,2.73
2022-12-06T05:19:58.136Z,2.73
2022-12-06T05:22:26.259Z,2.79
2022-12-06T05:24:55.143Z,2.84
2022-12-06T05:27:24.561Z,2.85
2022-12-06T05:29:52.561Z,2.87
2022-12-06T05:32:20.755Z,2.86
2022-12-06T05:34:49.044Z,2.83
2022-12-06T05:37:17.220Z,2.90
2022-12-06T05:39:45.128Z,2.87
2022-12-06T05:42:20.404Z,2.91
2022-12-06T05:44:50.393Z,2.94
2022-12-06T05:47:19.384Z,2.95
2022-12-06T05:49:47.292Z,2.97
2022-12-06T05:52:15.244Z,2.94
2022-12-06T05:54:43.210Z,2.93
2022-12-06T05:57:11.314Z,2.94
2022-12-06T05:59:40.509Z,2.93
2022-12-06T06:02:11.409Z,2.98
2022-12-06T06:04:39.488Z,3.02
2022-12-06T06:07:07.437Z,3.06
2022-12-06T06:09:35.369Z,3.07
2022-12-06T06:12:06.843Z,3.05
2022-12-06T06:14:38.119Z,3.10
2022-12-06T06:17:06.558Z,3.08
2022-12-06T06:19:36.132Z,3.10
2022-12-06T06:22:06.281Z,3.09
2022-12-06T06:24:42.343Z,3.10
2022-12-06T06:27:14.363Z,3.13
2022-12-06T06:29:45.505Z,3.18
2022-12-06T06:32:13.741Z,3.18
2022-12-06T06:34:42.193Z,3.18
2022-12-06T06:37:10.968Z,3.23
2022-12-06T06:39:40.357Z,3.27
2022-12-06T06:42:08.855Z,3.26
2022-12-06T06:44:37.163Z,3.26
2022-12-06T06:47:06.097Z,3.34
2022-12-06T06:49:34.177Z,3.36
2022-12-06T06:52:04.090Z,3.41
2022-12-06T06:54:32.061Z,3.43
2022-12-06T06:57:03.020Z,3.43
2022-12-06T06:59:31.281Z,3.46
2022-12-06T07:01:59.973Z,3.48
2022-12-06T07:04:28.317Z,3.51
2022-12-06T07:06:59.669Z,3.53
2022-12-06T07:09:28.500Z,3.54
2022-12-06T07:11:57.500Z,3.55
2022-12-06T07:14:25.446Z,3.57
2022-12-06T07:16:53.898Z,3.61
2022-12-06T07:19:22.755Z,3.64
2022-12-06T07:21:50.922Z,3.64
2022-12-06T07:24:19.811Z,3.68
2022-12-06T07:26:47.851Z,3.62
2022-12-06T07:29:17.484Z,3.69
2022-12-06T07:31:46.490Z,3.71
2022-12-06T07:34:14.689Z,3.78
2022-12-06T07:36:42.752Z,3.79
2022-12-06T07:39:14.689Z,3.84
2022-12-06T07:42:03.463Z,3.89
2022-12-06T07:45:02.846Z,3.90
2022-12-06T07:47:40.411Z,3.98
2022-12-06T07:50:17.661Z,4.04
2022-12-06T07:52:48.938Z,4.11
2022-12-06T07:55:19.434Z,4.14
2022-12-06T07:57:48.342Z,4.17
2022-12-06T08:00:20.889Z,4.11
2022-12-06T08:02:49.284Z,4.14
2022-12-06T08:05:17.736Z,4.17
2022-12-06T08:07:46.126Z,4.22
2022-12-06T08:10:14.450Z,4.22
2022-12-06T08:12:44.956Z,4.24
2022-12-06T08:15:15.412Z,4.29
2022-12-06T08:17:43.462Z,4.34
2022-12-06T08:20:13.069Z,4.42
2022-12-06T08:22:41.351Z,4.41
2022-12-06T08:25:09.990Z,4.44
2022-12-06T08:27:38.284Z,4.49
2022-12-06T08:30:07.205Z,4.52
2022-12-06T08:32:35.231Z,4.55
2022-12-06T08:35:04.014Z,4.58
2022-12-06T08:37:34.375Z,4.65
2022-12-06T08:40:03.001Z,4.69
2022-12-06T08:42:31.923Z,4.72
2022-12-06T08:45:00.192Z,4.72
2022-12-06T08:47:28.337Z,4.76
2022-12-06T08:49:58.907Z,4.74
2022-12-06T08:52:28.962Z,4.74
2022-12-06T08:54:57.034Z,4.65
2022-12-06T08:57:25.488Z,4.69
2022-12-06T08:59:54.528Z,4.69
2022-12-06T09:02:22.791Z,4.77
2022-12-06T09:04:52.176Z,4.80
2022-12-06T09:07:21.265Z,4.74
2022-12-06T09:09:49.983Z,4.81
2022-12-06T09:12:18.195Z,4.86
2022-12-06T09:14:47.027Z,4.91
2022-12-06T09:17:15.094Z,4.82
2022-12-06T09:19:43.446Z,4.87
2022-12-06T09:22:12.081Z,4.96
2022-12-06T09:24:42.545Z,5.06
2022-12-06T09:27:11.984Z,5.16
2022-12-06T09:29:41.077Z,5.09
2022-12-06T09:32:09.210Z,5.16
2022-12-06T09:34:39.026Z,5.22
2022-12-06T09:37:13.188Z,5.32
2022-12-06T09:39:47.432Z,5.40
2022-12-06T09:42:35.736Z,5.47
2022-12-06T09:45:03.674Z,5.49
2022-12-06T09:47:50.617Z,5.55
2022-12-06T09:50:28.321Z,5.60
2022-12-06T09:53:21.650Z,5.57
2022-12-06T09:56:12.929Z,5.59
2022-12-06T09:59:06.300Z,5.49
2022-12-06T10:01:37.340Z,5.52
2022-12-06T10:04:27.012Z,5.52
2022-12-06T10:07:25.808Z,5.46
2022-12-06T10:10:21.220Z,5.61
2022-12-06T10:13:13.528Z,5.66
2022-12-06T10:15:59.495Z,5.66
2022-12-06T10:18:58.079Z,5.70
2022-12-06T10:21:50.182Z,5.72
2022-12-06T10:24:41.173Z,5.61
2022-12-06T10:27:28.527Z,5.67
2022-12-06T10:30:12.227Z,5.63
2022-12-06T10:32:43.241Z,5.58
2022-12-06T10:35:44.245Z,5.56
2022-12-06T10:38:25.135Z,5.51
2022-12-06T10:41:02.003Z,5.49
2022-12-06T10:43:36.545Z,5.48
2022-12-06T10:46:43.738Z,5.46
2022-12-06T10:49:32.491Z,5.44
2022-12-06T10:52:35.007Z,5.41
2022-12-06T10:55:10.391Z,5.39
2022-12-06T10:58:10.140Z,5.22
2022-12-06T11:00:50.658Z,5.13
2022-12-06T11:03:23.438Z,5.28
2022-12-06T11:06:17.781Z,5.35
2022-12-06T11:09:00.103Z,5.35
2022-12-06T11:11:37.094Z,5.40
2022-12-06T11:14:30.548Z,5.29
2022-12-06T11:17:22.010Z,5.20
2022-12-06T11:19:54.858Z,5.31
2022-12-06T11:22:46.710Z,5.31
2022-12-06T11:25:25.936Z,5.43
2022-12-06T11:28:44.136Z,5.51
2022-12-06T11:31:30.956Z,5.31
2022-12-06T11:34:01.345Z,5.46
2022-12-06T11:36:31.101Z,5.45
2022-12-06T11:39:00.462Z,5.37
2022-12-06T11:41:34.327Z,5.31
2022-12-06T11:44:03.245Z,5.24
2022-12-06T11:46:31.489Z,5.34
2022-12-06T11:49:24.438Z,5.39
2022-12-06T11:51:53.683Z,5.45
2022-12-06T11:55:04.119Z,5.50
2022-12-06T11:58:23.990Z,5.50
2022-12-06T12:00:56.112Z,5.49
2022-12-06T12:03:35.557Z,5.50
2022-12-06T12:06:19.982Z,5.47
2022-12-06T12:09:14.372Z,5.36
2022-12-06T12:11:43.305Z,5.42
2022-12-06T12:14:27.248Z,5.27
2022-12-06T12:17:03.300Z,5.08
2022-12-06T12:19:44.510Z,5.09
2022-12-06T12:22:32.325Z,5.06
2022-12-06T12:25:19.561Z,5.09
2022-12-06T12:27:53.076Z,4.98
2022-12-06T12:30:24.504Z,5.04
2022-12-06T12:33:14.165Z,5.13
2022-12-06T12:35:52.364Z,5.19
2022-12-06T12:38:28.913Z,5.30
2022-12-06T12:41:19.555Z,5.37
2022-12-06T12:44:28.521Z,5.38
2022-12-06T12:46:54.517Z,5.38
2022-12-06T12:49:28.712Z,5.28
2022-12-06T12:51:57.444Z,5.21
2022-12-06T12:54:33.096Z,5.24
2022-12-06T12:57:07.345Z,5.35
2022-12-06T12:59:40.480Z,5.41
2022-12-06T13:02:23.065Z,5.50
2022-12-06T13:05:24.915Z,5.58
2022-12-06T13:07:53.226Z,5.48
2022-12-06T13:10:32.386Z,5.59
2022-12-06T13:13:17.624Z,5.60
2022-12-06T13:15:53.444Z,5.63
2022-12-06T13:18:27.394Z,5.71
2022-12-06T13:21:02.676Z,5.81
2022-12-06T13:23:39.088Z,5.83
2022-12-06T13:26:26.732Z,5.76
2022-12-06T13:29:04.262Z,5.77
2022-12-06T13:31:37.066Z,5.79
2022-12-06T13:34:37.601Z,5.80
2022-12-06T13:37:30.526Z,5.65
2022-12-06T13:39:59.299Z,5.50
2022-12-06T13:42:37.545Z,5.47
2022-12-06T13:45:26.659Z,5.41
2022-12-06T13:47:54.674Z,5.30
2022-12-06T13:50:23.657Z,5.23
2022-12-06T13:52:52.125Z,5.11
2022-12-06T13:55:26.302Z,5.12
2022-12-06T13:57:55.457Z,5.06
2022-12-06T14:00:34.862Z,5.00
2022-12-06T14:03:24.151Z,4.94
2022-12-06T14:06:15.536Z,4.81
2022-12-06T14:08:57.651Z,4.82
2022-12-06T14:11:35.148Z,4.80
2022-12-06T14:14:24.425Z,4.83
2022-12-06T14:16:59.281Z,4.86
2022-12-06T14:19:47.491Z,4.79
2022-12-06T14:22:31.835Z,4.78
2022-12-06T14:25:19.307Z,4.82
2022-12-06T14:27:51.430Z,4.79
2022-12-06T14:30:26.256Z,4.81
2022-12-06T14:32:55.838Z,4.79
2022-12-06T14:35:31.035Z,4.75
2022-12-06T14:38:03.889Z,4.76
2022-12-06T14:41:03.150Z,4.68
2022-12-06T14:43:33.415Z,4.71
2022-12-06T14:46:05.668Z,4.70
2022-12-06T14:48:53.194Z,4.55
2022-12-06T14:51:27.564Z,4.46
2022-12-06T14:53:56.042Z,4.53
2022-12-06T14:56:35.429Z,4.48
2022-12-06T14:59:12.047Z,4.54
2022-12-06T15:01:52.069Z,4.60
2022-12-06T15:04:35.286Z,4.63
2022-12-06T15:07:04.993Z,4.63
2022-12-06T15:09:49.279Z,4.66
2022-12-06T15:12:46.807Z,4.67
2022-12-06T15:15:36.524Z,4.67
2022-12-06T15:18:12.045Z,4.66
2022-12-06T15:20:40.525Z,4.57
2022-12-06T15:24:01.145Z,4.59
2022-12-06T15:26:29.865Z,4.61
2022-12-06T15:28:59.869Z,4.50
2022-12-06T15:31:30.363Z,4.52
2022-12-06T15:34:00.144Z,4.57
2022-12-06T15:36:34.007Z,4.61
2022-12-06T15:39:02.064Z,4.60
2022-12-06T15:41:30.322Z,4.59
2022-12-06T15:43:58.337Z,4.66
2022-12-06T15:46:30.214Z,4.59
2022-12-06T15:49:01.837Z,4.58
2022-12-06T15:51:30.353Z,4.55
2022-12-06T15:54:00.383Z,4.60
2022-12-06T15:56:30.247Z,4.64
2022-12-06T15:58:58.441Z,4.65
2022-12-06T16:01:31.758Z,4.63
2022-12-06T16:04:00.619Z,4.53
2022-12-06T16:06:29.501Z,4.52
2022-12-06T16:08:59.512Z,4.53
2022-12-06T16:11:29.851Z,4.57
2022-12-06T16:13:57.989Z,4.54
2022-12-06T16:16:27.294Z,4.60
2022-12-06T16:18:55.366Z,4.53
2022-12-06T16:21:24.208Z,4.44
2022-12-06T16:24:16.473Z,4.36
2022-12-06T16:26:46.496Z,4.45
2022-12-06T16:29:25.036Z,4.51
2022-12-06T16:31:56.431Z,4.41
2022-12-06T16:34:25.835Z,4.45
2022-12-06T16:36:53.891Z,4.46
2022-12-06T16:39:21.930Z,4.53
2022-12-06T16:41:52.340Z,4.53
2022-12-06T16:44:21.581Z,4.49
2022-12-06T16:46:49.799Z,4.52
2022-12-06T16:49:45.674Z,4.53
2022-12-06T16:52:15.646Z,4.57
2022-12-06T16:54:44.969Z,4.60
2022-12-06T16:57:13.670Z,4.59
2022-12-06T16:59:43.237Z,4.60
2022-12-06T17:02:30.206Z,4.55
2022-12-06T17:05:06.114Z,4.60
2022-12-06T17:07:36.164Z,4.62
2022-12-06T17:10:06.647Z,4.53
2022-12-06T17:12:34.953Z,4.52
2022-12-06T17:15:03.421Z,4.55
2022-12-06T17:17:31.796Z,4.58
2022-12-06T17:20:00.315Z,4.59
2022-12-06T17:22:28.753Z,4.63
2022-12-06T17:24:56.835Z,4.65
2022-12-06T17:27:25.088Z,4.68
2022-12-06T17:29:54.293Z,4.71
2022-12-06T17:32:22.404Z,4.69
2022-12-06T17:34:50.578Z,4.64
2022-12-06T17:37:19.707Z,4.65
2022-12-06T17:39:50.109Z,4.64
2022-12-06T17:42:38.960Z,4.64
2022-12-06T17:45:07.656Z,4.58
2022-12-06T17:47:35.810Z,4.57
2022-12-06T17:50:05.613Z,4.59
2022-12-06T17:52:33.893Z,4.60
2022-12-06T17:55:02.657Z,4.64
2022-12-06T17:57:31.242Z,4.56
2022-12-06T17:59:59.181Z,4.54
2022-12-06T18:02:28.036Z,4.56
2022-12-06T18:04:59.953Z,4.57
2022-12-06T18:07:28.650Z,4.58
2022-12-06T18:09:58.378Z,4.54
2022-12-06T18:12:29.287Z,4.51
2022-12-06T18:15:00.540Z,4.47
2022-12-06T18:17:31.182Z,4.50
2022-12-06T18:20:00.472Z,4.48
2022-12-06T18:22:28.692Z,4.45
2022-12-06T18:24:56.807Z,4.36
2022-12-06T18:27:24.834Z,4.33
2022-12-06T18:29:53.405Z,4.35
2022-12-06T18:32:21.404Z,4.35
2022-12-06T18:34:49.346Z,4.34
2022-12-06T18:37:17.239Z,4.35
2022-12-06T18:39:45.644Z,4.37
2022-12-06T18:42:14.396Z,4.34
2022-12-06T18:44:42.320Z,4.32
2022-12-06T18:47:10.814Z,4.36
2022-12-06T18:49:39.424Z,4.35
2022-12-06T18:52:07.500Z,4.33
2022-12-06T18:54:36.837Z,4.27
2022-12-06T18:57:04.872Z,4.28
2022-12-06T18:59:33.244Z,4.26
2022-12-06T19:02:02.370Z,4.26
2022-12-06T19:04:30.891Z,4.26
2022-12-06T19:06:58.862Z,4.27
2022-12-06T19:09:26.927Z,4.30
2022-12-06T19:11:55.081Z,4.33
2022-12-06T19:14:25.024Z,4.32
2022-12-06T19:16:53.243Z,4.31
2022-12-06T19:19:26.978Z,4.29
2022-12-06T19:21:57.327Z,4.24
2022-12-06T19:24:26.884Z,4.24
2022-12-06T19:27:00.216Z,4.22
2022-12-06T19:29:29.663Z,4.16
2022-12-06T19:31:57.844Z,4.12
2022-12-06T19:34:27.682Z,4.16
2022-12-06T19:36:58.119Z,4.21
2022-12-06T19:39:26.997Z,4.21
2022-12-06T19:42:13.745Z,4.22
2022-12-06T19:44:44.738Z,4.23
2022-12-06T19:47:13.858Z,4.18
2022-12-06T19:49:42.591Z,4.18
2022-12-06T19:52:13.580Z,4.18
2022-12-06T19:54:42.380Z,4.19
2022-12-06T19:57:12.115Z,4.23
2022-12-06T19:59:40.109Z,4.17
2022-12-06T20:02:12.605Z,4.19
2022-12-06T20:04:42.158Z,4.18
2022-12-06T20:07:10.907Z,4.10
2022-12-06T20:09:39.815Z,4.06
2022-12-06T20:12:09.449Z,4.08
2022-12-06T20:14:46.143Z,4.08
2022-12-06T20:17:20.669Z,4.03
2022-12-06T20:19:51.544Z,4.04
2022-12-06T20:22:19.947Z,4.02
2022-12-06T20:24:48.441Z,4.02
2022-12-06T20:27:18.362Z,4.03
2022-12-06T20:29:46.629Z,4.07
2022-12-06T20:32:16.633Z,4.04
2022-12-06T20:34:45.872Z,3.90
2022-12-06T20:37:13.759Z,3.88
2022-12-06T20:39:42.247Z,3.86
2022-12-06T20:42:10.282Z,3.90
2022-12-06T20:44:38.384Z,3.86
2022-12-06T20:47:06.448Z,3.79
2022-12-06T20:49:34.667Z,3.79
2022-12-06T20:52:03.840Z,3.78
2022-12-06T20:54:32.459Z,3.80
2022-12-06T20:57:08.105Z,3.70
2022-12-06T20:59:37.024Z,3.71
2022-12-06T21:02:06.725Z,3.69
2022-12-06T21:04:36.968Z,3.66
2022-12-06T21:07:05.658Z,3.62
2022-12-06T21:09:33.708Z,3.66
2022-12-06T21:12:02.356Z,3.64
2022-12-06T21:14:30.815Z,3.70
2022-12-06T21:16:59.117Z,3.74
2022-12-06T21:19:28.134Z,3.81
2022-12-06T21:22:01.119Z,3.86
2022-12-06T21:24:31.278Z,3.86
2022-12-06T21:26:59.635Z,3.87
2022-12-06T21:29:30.995Z,3.86
2022-12-06T21:32:02.497Z,3.89
2022-12-06T21:34:31.676Z,3.87
2022-12-06T21:37:00.465Z,3.90
2022-12-06T21:39:28.632Z,3.93
2022-12-06T21:41:57.422Z,3.95
2022-12-06T21:44:25.480Z,3.98
2022-12-06T21:46:55.938Z,4.02
2022-12-06T21:49:25.271Z,4.09
2022-12-06T21:52:01.036Z,4.07
2022-12-06T21:54:31.395Z,4.08
2022-12-06T21:57:00.427Z,4.09
2022-12-06T21:59:28.855Z,4.10
2022-12-06T22:01:57.572Z,4.15
2022-12-06T22:04:26.174Z,4.15
2022-12-06T22:06:54.658Z,4.15
2022-12-06T22:09:23.031Z,4.16
2022-12-06T22:11:51.148Z,4.17
2022-12-06T22:14:19.408Z,4.18
2022-12-06T22:16:50.572Z,4.20
2022-12-06T22:19:18.750Z,4.22
2022-12-06T22:21:47.941Z,4.13
2022-12-06T22:24:16.150Z,4.07
2022-12-06T22:26:44.603Z,4.08
2022-12-06T22:29:12.876Z,4.09
2022-12-06T22:31:41.004Z,4.08
2022-12-06T22:34:09.860Z,4.11
2022-12-06T22:36:37.977Z,4.14
2022-12-06T22:39:07.937Z,4.10
2022-12-06T22:41:35.872Z,4.08
2022-12-06T22:44:07.209Z,4.06
2022-12-06T22:46:36.787Z,4.10
2022-12-06T22:49:06.476Z,4.02
2022-12-06T22:51:36.947Z,4.06
2022-12-06T22:54:09.301Z,3.99
2022-12-06T22:56:39.744Z,4.07
2022-12-06T22:59:09.564Z,4.06
2022-12-06T23:01:39.495Z,4.03
2022-12-06T23:04:08.114Z,4.03
2022-12-06T23:06:36.866Z,4.03
2022-12-06T23:09:06.810Z,4.01
2022-12-06T23:11:36.508Z,4.04
2022-12-06T23:14:04.764Z,4.01
2022-12-06T23:16:33.212Z,4.00
2022-12-06T23:19:03.581Z,4.00
2022-12-06T23:21:35.250Z,3.95
2022-12-06T23:24:09.812Z,3.93
2022-12-06T23:26:45.607Z,3.85
2022-12-06T23:29:15.103Z,3.85
2022-12-06T23:31:45.132Z,3.79
2022-12-06T23:34:22.754Z,3.79
2022-12-06T23:36:50.783Z,3.79
2022-12-06T23:39:19.590Z,3.81
2022-12-06T23:41:47.923Z,3.83
2022-12-06T23:44:15.909Z,3.86
2022-12-06T23:46:45.725Z,3.92
2022-12-06T23:49:19.751Z,3.95
2022-12-06T23:51:48.679Z,3.96
2022-12-06T23:54:17.774Z,3.95
2022-12-06T23:56:46.981Z,3.97
2022-12-06T23:59:16.405Z,4.01
